createdAt,value
2022-08-16T00:01:40.569Z,25.20
2022-08-16T00:04:11.548Z,25.20
2022-08-16T00:06:44.040Z,25.20
2022-08-16T00:09:17.649Z,25.10
2022-08-16T00:11:52.738Z,25.20
2022-08-16T00:14:28.972Z,25.20
2022-08-16T00:17:18.389Z,25.10
2022-08-16T00:19:54.961Z,25.10
2022-08-16T00:22:27.935Z,25.10
2022-08-16T00:25:01.318Z,25.10
2022-08-16T00:27:31.841Z,25.00
2022-08-16T00:30:19.107Z,24.90
2022-08-16T00:32:57.130Z,25.00
2022-08-16T00:35:34.876Z,25.00
2022-08-16T00:38:40.855Z,25.00
2022-08-16T00:40:59.239Z,25.00
2022-08-16T00:43:43.340Z,24.90
2022-08-16T00:46:33.759Z,24.90
2022-08-16T00:49:18.783Z,24.80
2022-08-16T00:51:53.686Z,24.80
2022-08-16T00:54:29.676Z,24.80
2022-08-16T00:57:02.502Z,24.70
2022-08-16T00:59:37.635Z,24.60
2022-08-16T01:02:31.257Z,24.60
2022-08-16T01:05:10.475Z,24.50
2022-08-16T01:07:50.824Z,24.50
2022-08-16T01:10:32.670Z,24.40
2022-08-16T01:13:12.220Z,24.30
2022-08-16T01:15:52.692Z,24.30
2022-08-16T01:18:39.725Z,24.20
2022-08-16T01:21:34.833Z,24.20
2022-08-16T01:24:53.577Z,24.20
2022-08-16T01:27:17.510Z,24.10
2022-08-16T01:29:57.562Z,24.10
2022-08-16T01:32:41.161Z,24.10
2022-08-16T01:35:17.875Z,23.90
2022-08-16T01:37:56.629Z,24.00
2022-08-16T01:40:34.573Z,24.10
2022-08-16T01:43:05.903Z,24.10
2022-08-16T01:45:41.484Z,24.10
2022-08-16T01:48:20.408Z,24.00
2022-08-16T01:51:08.210Z,24.00
2022-08-16T01:53:41.224Z,24.00
2022-08-16T01:56:30.925Z,24.00
2022-08-16T01:59:05.052Z,23.90
2022-08-16T02:01:37.309Z,23.90
2022-08-16T02:04:10.902Z,23.90
2022-08-16T02:06:46.779Z,23.90
2022-08-16T02:09:23.200Z,23.90
2022-08-16T02:12:42.082Z,23.90
2022-08-16T02:14:52.136Z,23.80
2022-08-16T02:17:22.712Z,23.70
2022-08-16T02:20:00.107Z,23.80
2022-08-16T02:22:36.741Z,23.80
2022-08-16T02:25:16.044Z,23.70
2022-08-16T02:27:50.828Z,23.70
2022-08-16T02:30:37.402Z,23.50
2022-08-16T02:33:16.718Z,23.50
2022-08-16T02:35:53.836Z,23.50
2022-08-16T02:38:33.275Z,23.50
2022-08-16T02:41:09.603Z,23.40
2022-08-16T02:43:47.245Z,23.30
2022-08-16T02:46:19.289Z,23.30
2022-08-16T02:49:01.810Z,23.30
2022-08-16T02:51:33.179Z,23.30
2022-08-16T02:54:06.246Z,23.40
2022-08-16T02:56:39.842Z,23.30
2022-08-16T02:59:14.554Z,23.30
2022-08-16T03:01:46.150Z,23.30
2022-08-16T03:04:50.273Z,23.30
2022-08-16T03:07:27.688Z,23.20
2022-08-16T03:10:00.260Z,23.20
2022-08-16T03:12:55.603Z,23.20
2022-08-16T03:15:25.221Z,23.10
2022-08-16T03:17:58.149Z,23.10
2022-08-16T03:20:34.212Z,23.10
2022-08-16T03:23:08.165Z,23.00
2022-08-16T03:25:43.132Z,23.00
2022-08-16T03:28:17.190Z,23.00
2022-08-16T03:30:55.304Z,22.90
2022-08-16T03:33:27.354Z,22.90
2022-08-16T03:36:30.389Z,22.90
2022-08-16T03:38:58.105Z,22.80
2022-08-16T03:41:29.509Z,22.90
2022-08-16T03:44:44.122Z,22.80
2022-08-16T03:47:12.830Z,22.80
2022-08-16T03:49:58.777Z,22.80
2022-08-16T03:52:31.323Z,22.80
2022-08-16T03:55:04.212Z,22.80
2022-08-16T03:57:35.686Z,22.80
2022-08-16T04:00:20.562Z,22.80
2022-08-16T04:03:11.160Z,22.80
2022-08-16T04:05:48.631Z,22.70
2022-08-16T04:08:24.384Z,22.70
2022-08-16T04:10:59.718Z,22.70
2022-08-16T04:13:59.345Z,22.70
2022-08-16T04:16:28.318Z,22.60
2022-08-16T04:19:14.939Z,22.70
2022-08-16T04:21:47.610Z,22.50
2022-08-16T04:24:23.293Z,22.60
2022-08-16T04:27:00.283Z,22.50
2022-08-16T04:29:44.175Z,22.50
2022-08-16T04:32:19.849Z,22.50
2022-08-16T04:34:54.374Z,22.40
2022-08-16T04:37:25.666Z,22.40
2022-08-16T04:40:05.735Z,22.50
2022-08-16T04:42:38.513Z,22.50
2022-08-16T04:45:10.588Z,22.50
2022-08-16T04:47:42.818Z,22.40
2022-08-16T04:50:23.397Z,22.40
2022-08-16T04:53:02.942Z,22.30
2022-08-16T04:55:38.318Z,22.40
2022-08-16T04:58:38.316Z,22.40
2022-08-16T05:01:02.910Z,22.40
2022-08-16T05:03:41.746Z,22.20
2022-08-16T05:06:42.427Z,22.30
2022-08-16T05:09:29.564Z,22.20
2022-08-16T05:12:00.990Z,22.30
2022-08-16T05:14:46.609Z,22.20
2022-08-16T05:17:26.697Z,22.20
2022-08-16T05:20:01.902Z,22.20
2022-08-16T05:22:54.933Z,22.30
2022-08-16T05:25:40.733Z,22.30
2022-08-16T05:28:14.128Z,22.20
2022-08-16T05:30:51.403Z,22.20
2022-08-16T05:33:27.213Z,22.20
2022-08-16T05:36:00.336Z,22.10
2022-08-16T05:38:40.006Z,22.10
2022-08-16T05:41:14.849Z,22.20
2022-08-16T05:43:48.243Z,22.20
2022-08-16T05:46:31.495Z,22.20
2022-08-16T05:49:22.265Z,22.20
2022-08-16T05:51:57.201Z,22.20
2022-08-16T05:54:31.586Z,22.30
2022-08-16T05:57:04.216Z,22.20
2022-08-16T05:59:35.594Z,22.20
2022-08-16T06:02:13.394Z,22.30
2022-08-16T06:04:46.692Z,22.30
2022-08-16T06:07:25.008Z,22.40
2022-08-16T06:10:33.129Z,22.30
2022-08-16T06:13:07.730Z,22.40
2022-08-16T06:15:42.267Z,22.40
2022-08-16T06:18:13.287Z,22.40
2022-08-16T06:20:55.472Z,22.50
2022-08-16T06:23:32.349Z,22.50
2022-08-16T06:26:11.031Z,22.40
2022-08-16T06:28:48.142Z,22.50
2022-08-16T06:31:28.886Z,22.50
2022-08-16T06:34:03.020Z,22.50
2022-08-16T06:36:59.587Z,22.60
2022-08-16T06:39:31.819Z,22.70
2022-08-16T06:42:12.078Z,22.70
2022-08-16T06:45:09.318Z,22.70
2022-08-16T06:47:56.586Z,22.80
2022-08-16T06:50:35.120Z,22.70
2022-08-16T06:53:11.210Z,22.90
2022-08-16T06:55:58.902Z,22.90
2022-08-16T06:58:38.760Z,22.90
2022-08-16T07:01:15.940Z,22.90
2022-08-16T07:03:55.100Z,23.00
2022-08-16T07:06:28.659Z,23.00
2022-08-16T07:09:09.633Z,23.00
2022-08-16T07:11:45.938Z,23.10
2022-08-16T07:14:30.038Z,23.10
2022-08-16T07:17:08.186Z,23.20
2022-08-16T07:20:03.131Z,23.10
2022-08-16T07:22:53.074Z,23.20
2022-08-16T07:25:40.948Z,23.30
2022-08-16T07:28:20.918Z,23.40
2022-08-16T07:31:03.450Z,23.40
2022-08-16T07:33:52.156Z,23.50
2022-08-16T07:36:29.048Z,23.50
2022-08-16T07:39:02.076Z,23.60
2022-08-16T07:41:38.926Z,23.70
2022-08-16T07:44:16.466Z,23.70
2022-08-16T07:46:56.298Z,23.80
2022-08-16T07:49:32.406Z,23.80
2022-08-16T07:52:13.911Z,23.90
2022-08-16T07:54:53.319Z,23.80
2022-08-16T07:57:26.271Z,24.00
2022-08-16T07:59:57.805Z,24.00
2022-08-16T08:02:34.275Z,24.00
2022-08-16T08:05:07.549Z,24.10
2022-08-16T08:07:38.229Z,24.20
2022-08-16T08:10:19.146Z,24.20
2022-08-16T08:13:00.102Z,24.20
2022-08-16T08:15:34.367Z,24.20
2022-08-16T08:18:29.859Z,24.40
2022-08-16T08:20:59.911Z,24.40
2022-08-16T08:23:37.155Z,24.50
2022-08-16T08:26:17.509Z,24.50
2022-08-16T08:28:49.664Z,24.60
2022-08-16T08:31:21.042Z,24.60
2022-08-16T08:33:58.735Z,24.70
2022-08-16T08:36:32.997Z,24.80
2022-08-16T08:39:12.466Z,24.90
2022-08-16T08:41:44.213Z,24.90
2022-08-16T08:44:28.426Z,25.10
2022-08-16T08:47:04.771Z,25.20
2022-08-16T08:49:50.494Z,25.20
2022-08-16T08:52:34.441Z,25.30
2022-08-16T08:55:10.907Z,25.20
2022-08-16T08:57:45.644Z,25.20
2022-08-16T09:00:27.050Z,25.40
2022-08-16T09:03:04.617Z,25.50
2022-08-16T09:05:39.978Z,25.50
2022-08-16T09:08:18.089Z,25.50
2022-08-16T09:11:02.403Z,25.50
2022-08-16T09:13:36.052Z,25.50
2022-08-16T09:16:07.410Z,25.70
2022-08-16T09:18:43.405Z,25.80
2022-08-16T09:21:19.062Z,25.90
2022-08-16T09:24:02.704Z,25.90
2022-08-16T09:26:45.785Z,25.90
2022-08-16T09:29:24.120Z,26.10
2022-08-16T09:32:12.318Z,26.10
2022-08-16T09:34:43.142Z,26.30
2022-08-16T09:37:17.572Z,26.30
2022-08-16T09:39:50.470Z,26.30
2022-08-16T09:42:20.917Z,26.40
2022-08-16T09:45:12.702Z,26.50
2022-08-16T09:47:56.746Z,26.50
2022-08-16T09:50:37.178Z,26.70
2022-08-16T09:53:16.914Z,26.80
2022-08-16T09:55:52.160Z,26.80
2022-08-16T09:58:41.614Z,26.80
2022-08-16T10:01:20.110Z,26.80
2022-08-16T10:04:02.664Z,27.00
2022-08-16T10:06:34.343Z,27.10
2022-08-16T10:09:11.281Z,27.20
2022-08-16T10:11:55.327Z,27.10
2022-08-16T10:14:32.979Z,27.10
2022-08-16T10:17:07.153Z,27.00
2022-08-16T10:19:41.418Z,27.00
2022-08-16T10:22:14.297Z,26.80
2022-08-16T10:24:55.951Z,26.80
2022-08-16T10:27:46.023Z,26.80
2022-08-16T10:30:25.773Z,26.80
2022-08-16T10:33:01.641Z,26.80
2022-08-16T10:35:33.317Z,26.70
2022-08-16T10:38:06.819Z,26.60
2022-08-16T10:40:45.534Z,26.60
2022-08-16T10:43:18.338Z,26.70
2022-08-16T10:46:00.191Z,26.80
2022-08-16T10:48:33.816Z,26.80
2022-08-16T10:51:04.191Z,26.90
2022-08-16T10:53:36.956Z,27.10
2022-08-16T10:56:52.467Z,27.30
2022-08-16T11:07:51.382Z,27.60
2022-08-16T11:19:12.275Z,28.10
2022-08-16T11:24:39.677Z,28.20
2022-08-16T11:27:20.087Z,28.20
2022-08-16T11:29:56.703Z,28.30
2022-08-16T11:32:32.124Z,28.30
2022-08-16T11:35:10.307Z,28.60
2022-08-16T11:40:38.929Z,29.00
2022-08-16T11:43:11.297Z,29.10
2022-08-16T11:45:53.625Z,29.20
2022-08-16T11:48:25.577Z,29.20
2022-08-16T11:50:56.873Z,29.20
2022-08-16T11:53:28.485Z,29.20
2022-08-16T11:56:06.928Z,29.10
2022-08-16T11:58:40.313Z,28.90
2022-08-16T12:01:15.383Z,28.80
2022-08-16T12:03:46.556Z,29.00
2022-08-16T12:06:25.529Z,29.20
2022-08-16T12:09:02.325Z,29.10
2022-08-16T12:11:33.202Z,29.30
2022-08-16T12:14:04.723Z,29.50
2022-08-16T12:16:38.547Z,29.50
2022-08-16T12:19:13.743Z,29.50
2022-08-16T12:21:58.487Z,29.30
2022-08-16T12:24:31.484Z,29.30
2022-08-16T12:27:02.271Z,29.30
2022-08-16T12:29:33.266Z,29.20
2022-08-16T12:32:38.319Z,29.10
2022-08-16T12:34:57.467Z,29.10
2022-08-16T12:37:27.914Z,29.10
2022-08-16T12:39:59.368Z,29.10
2022-08-16T12:42:34.674Z,29.10
2022-08-16T12:45:09.443Z,29.20
2022-08-16T12:48:05.109Z,29.40
2022-08-16T12:50:50.061Z,29.50
2022-08-16T12:53:21.082Z,29.40
2022-08-16T12:55:53.680Z,29.40
2022-08-16T12:58:48.636Z,29.30
2022-08-16T13:01:15.063Z,29.40
2022-08-16T13:03:49.579Z,29.50
2022-08-16T13:06:29.908Z,29.50
2022-08-16T13:09:18.446Z,29.60
2022-08-16T13:12:00.373Z,29.70
2022-08-16T13:14:33.618Z,29.60
2022-08-16T13:17:06.836Z,29.70
2022-08-16T13:20:07.089Z,29.60
2022-08-16T13:22:32.125Z,29.50
2022-08-16T13:25:03.849Z,29.40
2022-08-16T13:28:14.889Z,29.60
2022-08-16T13:30:36.579Z,29.50
2022-08-16T13:33:10.772Z,29.60
2022-08-16T13:35:55.392Z,29.70
2022-08-16T13:38:36.825Z,29.70
2022-08-16T13:41:09.999Z,29.90
2022-08-16T13:43:42.170Z,30.00
2022-08-16T13:46:12.492Z,30.30
2022-08-16T13:48:44.983Z,30.30
2022-08-16T13:51:20.465Z,30.40
2022-08-16T13:53:59.197Z,30.50
2022-08-16T13:56:37.528Z,30.50
2022-08-16T13:59:19.994Z,30.40
2022-08-16T14:01:55.154Z,30.30
2022-08-16T14:04:28.646Z,30.40
2022-08-16T14:07:05.773Z,30.60
2022-08-16T14:09:37.227Z,30.30
2022-08-16T14:12:17.889Z,30.30
2022-08-16T14:14:49.752Z,30.40
2022-08-16T14:17:23.639Z,30.40
2022-08-16T14:19:54.526Z,30.40
2022-08-16T14:22:40.017Z,30.30
2022-08-16T14:25:18.610Z,30.20
2022-08-16T14:27:54.415Z,30.20
2022-08-16T14:30:25.969Z,30.20
2022-08-16T14:32:58.053Z,30.00
2022-08-16T14:35:48.599Z,30.00
2022-08-16T14:38:23.999Z,30.10
2022-08-16T14:40:55.602Z,30.00
2022-08-16T14:43:29.762Z,30.10
2022-08-16T14:46:01.798Z,30.10
2022-08-16T14:48:32.210Z,30.10
2022-08-16T14:51:03.772Z,30.10
2022-08-16T14:53:45.234Z,30.10
2022-08-16T14:56:38.197Z,30.00
2022-08-16T14:59:09.400Z,30.00
2022-08-16T15:01:58.213Z,30.20
2022-08-16T15:04:48.000Z,30.30
2022-08-16T15:07:21.634Z,30.50
2022-08-16T15:10:00.389Z,30.60
2022-08-16T15:12:34.224Z,30.70
2022-08-16T15:15:16.332Z,30.70
2022-08-16T15:17:53.980Z,30.80
2022-08-16T15:20:26.594Z,30.70
2022-08-16T15:22:58.238Z,30.60
2022-08-16T15:25:35.322Z,30.50
2022-08-16T15:28:09.875Z,30.60
2022-08-16T15:30:59.297Z,30.60
2022-08-16T15:33:32.258Z,30.60
2022-08-16T15:36:03.376Z,30.70
2022-08-16T15:38:56.202Z,30.50
2022-08-16T15:42:02.924Z,30.50
2022-08-16T15:44:44.718Z,30.60
2022-08-16T15:47:26.503Z,30.60
2022-08-16T15:49:58.027Z,30.70
2022-08-16T15:52:32.587Z,30.70
2022-08-16T15:55:07.507Z,30.70
2022-08-16T15:57:46.629Z,30.50
2022-08-16T16:00:20.979Z,30.60
2022-08-16T16:03:02.869Z,30.50
2022-08-16T16:05:33.598Z,30.50
2022-08-16T16:08:11.206Z,30.40
2022-08-16T16:10:43.483Z,30.50
2022-08-16T16:13:27.744Z,30.40
2022-08-16T16:16:03.031Z,30.50
2022-08-16T16:18:34.489Z,30.50
2022-08-16T16:21:08.094Z,30.50
2022-08-16T16:23:53.852Z,30.50
2022-08-16T16:26:28.340Z,30.40
2022-08-16T16:29:07.586Z,30.50
2022-08-16T16:31:41.879Z,30.50
2022-08-16T16:34:14.741Z,30.50
2022-08-16T16:36:48.657Z,30.40
2022-08-16T16:39:20.222Z,30.40
2022-08-16T16:41:52.189Z,30.40
2022-08-16T16:44:33.929Z,30.40
2022-08-16T16:47:07.319Z,30.40
2022-08-16T16:49:41.915Z,30.40
2022-08-16T16:52:43.687Z,30.30
2022-08-16T16:55:09.534Z,30.20
2022-08-16T16:57:53.990Z,30.20
2022-08-16T17:00:38.041Z,30.10
2022-08-16T17:03:17.022Z,30.10
2022-08-16T17:05:58.643Z,30.10
2022-08-16T17:08:32.716Z,30.10
2022-08-16T17:11:04.260Z,30.00
2022-08-16T17:13:38.785Z,30.00
2022-08-16T17:16:18.968Z,30.00
2022-08-16T17:19:17.078Z,30.00
2022-08-16T17:21:42.232Z,30.00
2022-08-16T17:24:18.034Z,30.00
2022-08-16T17:26:49.562Z,29.90
2022-08-16T17:29:31.061Z,29.90
2022-08-16T17:32:34.227Z,29.90
2022-08-16T17:34:55.095Z,29.90
2022-08-16T17:37:42.235Z,29.90
2022-08-16T17:40:40.406Z,29.90
2022-08-16T17:43:10.373Z,29.90
2022-08-16T17:45:43.464Z,29.90
2022-08-16T17:48:16.950Z,29.90
2022-08-16T17:50:49.067Z,29.90
2022-08-16T17:53:25.104Z,29.90
2022-08-16T17:55:57.343Z,29.90
2022-08-16T17:58:28.145Z,29.80
2022-08-16T18:01:01.967Z,29.80
2022-08-16T18:04:03.018Z,29.80
2022-08-16T18:06:29.110Z,29.80
2022-08-16T18:09:03.946Z,29.80
2022-08-16T18:11:40.656Z,29.60
2022-08-16T18:14:15.987Z,29.50
2022-08-16T18:16:46.464Z,29.50
2022-08-16T18:19:19.816Z,29.40
2022-08-16T18:22:02.478Z,29.30
2022-08-16T18:24:32.893Z,29.30
2022-08-16T18:27:24.904Z,29.30
2022-08-16T18:29:54.291Z,29.30
2022-08-16T18:32:25.327Z,29.20
2022-08-16T18:34:58.384Z,29.20
2022-08-16T18:37:28.916Z,29.20
2022-08-16T18:39:59.287Z,29.20
2022-08-16T18:42:29.691Z,29.20
2022-08-16T18:45:00.035Z,29.10
2022-08-16T18:47:30.466Z,29.00
2022-08-16T18:50:03.425Z,28.90
2022-08-16T18:52:33.760Z,28.90
2022-08-16T18:55:14.389Z,28.80
2022-08-16T18:57:45.596Z,28.80
2022-08-16T19:00:17.409Z,28.70
2022-08-16T19:02:58.262Z,28.60
2022-08-16T19:05:35.432Z,28.60
2022-08-16T19:08:06.176Z,28.60
2022-08-16T19:10:38.625Z,28.50
2022-08-16T19:13:11.008Z,28.40
2022-08-16T19:15:43.388Z,28.40
2022-08-16T19:18:14.353Z,28.30
2022-08-16T19:20:48.351Z,28.20
2022-08-16T19:23:26.839Z,28.20
2022-08-16T19:26:01.345Z,28.10
2022-08-16T19:28:57.761Z,28.10
2022-08-16T19:31:26.594Z,28.10
2022-08-16T19:33:57.594Z,28.00
2022-08-16T19:36:35.736Z,28.00
2022-08-16T19:39:11.456Z,27.90
2022-08-16T19:41:43.949Z,27.90
2022-08-16T19:44:14.784Z,27.90
2022-08-16T19:46:46.648Z,27.80
2022-08-16T19:49:17.230Z,27.80
2022-08-16T19:51:51.714Z,27.70
2022-08-16T19:54:22.045Z,27.70
2022-08-16T19:56:52.531Z,27.60
2022-08-16T19:59:39.444Z,27.60
2022-08-16T20:02:25.576Z,27.50
2022-08-16T20:05:07.591Z,27.50
2022-08-16T20:07:40.758Z,27.50
2022-08-16T20:10:13.993Z,27.50
2022-08-16T20:12:58.243Z,27.40
2022-08-16T20:15:34.273Z,27.30
2022-08-16T20:18:24.382Z,27.30
2022-08-16T20:20:57.425Z,27.30
2022-08-16T20:23:30.366Z,27.20
2022-08-16T20:26:00.823Z,27.10
2022-08-16T20:28:40.656Z,27.10
2022-08-16T20:31:22.853Z,27.10
2022-08-16T20:33:54.758Z,27.10
2022-08-16T20:36:25.692Z,27.00
2022-08-16T20:39:00.150Z,27.00
2022-08-16T20:41:31.185Z,27.00
2022-08-16T20:44:04.482Z,27.00
2022-08-16T20:46:35.040Z,27.00
2022-08-16T20:49:10.709Z,26.90
2022-08-16T20:51:49.027Z,26.90
2022-08-16T20:54:23.009Z,26.90
2022-08-16T20:56:53.378Z,26.80
2022-08-16T20:59:23.987Z,26.80
2022-08-16T21:01:54.527Z,26.80
2022-08-16T21:04:27.877Z,26.80
2022-08-16T21:06:59.586Z,26.70
2022-08-16T21:09:34.878Z,26.70
2022-08-16T21:12:13.728Z,26.70
2022-08-16T21:14:48.351Z,26.60
2022-08-16T21:17:19.274Z,26.60
2022-08-16T21:19:49.605Z,26.60
2022-08-16T21:22:22.242Z,26.50
2022-08-16T21:24:55.242Z,26.50
2022-08-16T21:27:25.765Z,26.40
2022-08-16T21:29:56.169Z,26.40
2022-08-16T21:32:45.008Z,26.40
2022-08-16T21:35:18.533Z,26.30
2022-08-16T21:38:28.257Z,26.30
2022-08-16T21:40:42.483Z,26.30
2022-08-16T21:43:16.191Z,26.20
2022-08-16T21:45:54.883Z,26.20
2022-08-16T21:48:34.792Z,26.20
2022-08-16T21:51:06.731Z,26.20
2022-08-16T21:53:38.184Z,26.10
2022-08-16T21:56:16.484Z,26.10
2022-08-16T21:58:53.884Z,26.10
2022-08-16T22:01:26.608Z,26.00
2022-08-16T22:04:36.118Z,26.00
2022-08-16T22:06:47.617Z,26.00
2022-08-16T22:09:18.280Z,26.00
2022-08-16T22:11:51.343Z,25.90
2022-08-16T22:14:21.819Z,25.90
2022-08-16T22:16:52.240Z,25.90
2022-08-16T22:19:22.582Z,25.90
2022-08-16T22:21:52.986Z,25.90
2022-08-16T22:24:23.426Z,25.90
2022-08-16T22:26:56.420Z,25.80
2022-08-16T22:29:27.132Z,25.90
2022-08-16T22:31:58.019Z,25.90
2022-08-16T22:34:28.428Z,25.80
2022-08-16T22:36:58.688Z,25.80
2022-08-16T22:39:29.322Z,25.80
2022-08-16T22:42:08.324Z,25.70
2022-08-16T22:44:44.186Z,25.70
2022-08-16T22:47:16.407Z,25.70
2022-08-16T22:49:48.609Z,25.70
2022-08-16T22:52:50.708Z,25.70
2022-08-16T22:55:10.224Z,25.70
2022-08-16T22:57:43.118Z,25.70
2022-08-16T23:00:17.176Z,25.70
2022-08-16T23:03:04.691Z,25.60
2022-08-16T23:05:38.222Z,25.60
2022-08-16T23:08:10.657Z,25.60
2022-08-16T23:10:40.954Z,25.60
2022-08-16T23:13:14.456Z,25.60
2022-08-16T23:15:47.864Z,25.60
2022-08-16T23:18:26.839Z,25.50
2022-08-16T23:20:59.008Z,25.50
2022-08-16T23:23:29.379Z,25.50
2022-08-16T23:26:01.353Z,25.50
2022-08-16T23:28:35.509Z,25.50
2022-08-16T23:31:06.899Z,25.40
2022-08-16T23:33:37.325Z,25.40
2022-08-16T23:36:09.139Z,25.50
2022-08-16T23:38:39.894Z,25.40
2022-08-16T23:41:13.376Z,25.40
2022-08-16T23:43:46.963Z,25.40
2022-08-16T23:46:20.219Z,25.40
2022-08-16T23:50:01.701Z,25.40
2022-08-16T23:51:41.337Z,25.30
2022-08-16T23:54:11.989Z,25.30
2022-08-16T23:56:42.309Z,25.30
2022-08-16T23:59:15.827Z,25.30
